Terminal Aerodrome Forecast
Issued by NWS

Home | Current Version | Previous Version | Graphics & Text | Print | Product List | Glossary On
Versions: 1 2 3 4 5 6 7 8 9 10 11 12 13 14 15 16 17
000
FTUS43 KGRB 031000 AAB
TAFATW
TAF AMD
KATW 031051Z 0311/0406 16007G14KT P6SM SCT030 OVC070
      TEMPO 0312/0315 3SM -SN SCT015 BKN025
     FM031500 15010G16KT 2SM -SN OVC025
     FM031700 17008G16KT 3/4SM -SN OVC016
     FM032000 21009KT 2SM -SN BR SCT005 OVC010
     FM032100 24009KT 6SM -SN SCT015 OVC018
     FM032300 27010KT P6SM -SN SCT009 OVC025
     FM040200 28012G20KT P6SM SCT030 BKN100=

USA.gov is the U.S. government's official web portal to all federal, state and local government web resources and services.